createdAt,value
2018-11-12T00:01:38.438Z,2.53
2018-11-12T00:04:07.130Z,2.30
2018-11-12T00:06:35.773Z,1.93
2018-11-12T00:09:05.318Z,2.27
2018-11-12T00:11:33.977Z,2.33
2018-11-12T00:14:02.700Z,2.37
2018-11-12T00:16:31.363Z,2.87
2018-11-12T00:19:00.012Z,2.00
2018-11-12T00:21:28.654Z,2.57
2018-11-12T00:23:57.289Z,2.10
2018-11-12T00:26:25.935Z,2.23
2018-11-12T00:28:54.584Z,2.33
2018-11-12T00:31:23.224Z,2.27
2018-11-12T00:33:51.864Z,2.30
2018-11-12T00:36:20.485Z,2.10
2018-11-12T00:38:49.136Z,2.83
2018-11-12T00:41:17.789Z,2.67
2018-11-12T00:43:46.422Z,3.63
2018-11-12T00:46:15.072Z,2.83
2018-11-12T00:48:43.694Z,2.27
2018-11-12T00:51:12.344Z,2.33
2018-11-12T00:53:40.985Z,2.20
2018-11-12T00:56:09.623Z,2.40
2018-11-12T00:58:38.281Z,2.10
2018-11-12T01:01:08.942Z,2.83
2018-11-12T01:03:37.643Z,2.57
2018-11-12T01:06:06.664Z,2.30
2018-11-12T01:08:35.409Z,2.97
2018-11-12T01:11:04.080Z,2.30
2018-11-12T01:13:32.748Z,2.30
2018-11-12T01:16:01.479Z,2.57
2018-11-12T01:18:30.115Z,2.23
2018-11-12T01:20:58.755Z,2.20
2018-11-12T01:23:27.393Z,2.33
2018-11-12T01:25:56.051Z,2.23
2018-11-12T01:28:24.687Z,2.50
2018-11-12T01:30:57.452Z,2.43
2018-11-12T01:33:26.130Z,2.60
2018-11-12T01:35:54.796Z,2.47
2018-11-12T01:38:23.498Z,3.07
2018-11-12T01:40:52.127Z,2.67
2018-11-12T01:43:20.754Z,2.83
2018-11-12T01:45:49.386Z,2.40
2018-11-12T01:48:18.034Z,2.40
2018-11-12T01:50:46.729Z,2.20
2018-11-12T01:53:15.343Z,2.37
2018-11-12T01:55:43.997Z,2.53
2018-11-12T01:58:12.665Z,2.37
2018-11-12T02:00:41.328Z,2.67
2018-11-12T02:03:09.990Z,3.17
2018-11-12T02:05:38.660Z,3.27
2018-11-12T02:08:07.332Z,2.50
2018-11-12T02:10:36.014Z,2.10
2018-11-12T02:13:04.799Z,2.50
2018-11-12T02:15:33.463Z,2.27
2018-11-12T02:18:02.140Z,2.43
2018-11-12T02:20:30.781Z,2.03
2018-11-12T02:22:59.438Z,2.70
2018-11-12T02:25:28.097Z,2.30
2018-11-12T02:27:56.733Z,2.23
2018-11-12T02:30:30.606Z,2.80
2018-11-12T02:32:59.251Z,2.43
2018-11-12T02:35:27.904Z,2.53
2018-11-12T02:37:56.550Z,2.27
2018-11-12T02:40:25.212Z,2.70
2018-11-12T02:42:53.860Z,2.30
2018-11-12T02:45:22.500Z,2.57
2018-11-12T02:47:51.153Z,2.53
2018-11-12T02:50:19.827Z,2.50
2018-11-12T02:52:48.466Z,2.40
2018-11-12T02:55:17.235Z,2.70
2018-11-12T02:57:46.554Z,2.97
2018-11-12T03:00:17.460Z,2.50
2018-11-12T03:19:27.751Z,2.30
2018-11-12T03:21:56.391Z,2.77
2018-11-12T03:24:25.040Z,2.57
2018-11-12T03:26:53.684Z,2.37
2018-11-12T03:29:22.330Z,2.17
2018-11-12T03:31:51.004Z,2.17
2018-11-12T03:34:19.658Z,3.27
2018-11-12T03:36:48.300Z,2.17
2018-11-12T03:39:16.959Z,2.17
2018-11-12T03:41:45.613Z,2.60
2018-11-12T03:44:14.262Z,3.50
2018-11-12T03:46:42.912Z,2.90
2018-11-12T03:49:11.565Z,2.83
2018-11-12T03:51:40.207Z,2.67
2018-11-12T03:54:08.859Z,2.70
2018-11-12T03:56:37.529Z,2.60
2018-11-12T03:59:06.489Z,2.67
2018-11-12T04:01:40.283Z,3.00
2018-11-12T04:04:08.940Z,3.63
2018-11-12T04:06:37.583Z,2.70
2018-11-12T04:09:07.956Z,3.10
2018-11-12T04:11:36.589Z,2.67
2018-11-12T04:14:05.415Z,2.43
2018-11-12T04:16:34.150Z,2.83
2018-11-12T04:19:02.777Z,2.93
2018-11-12T04:21:31.430Z,2.57
2018-11-12T04:24:00.113Z,3.03
2018-11-12T04:26:28.776Z,2.93
2018-11-12T04:28:57.448Z,2.70
2018-11-12T04:31:26.128Z,3.10
2018-11-12T04:33:54.801Z,3.00
2018-11-12T04:36:23.471Z,2.73
2018-11-12T04:38:52.100Z,2.80
2018-11-12T04:41:20.724Z,3.40
2018-11-12T04:43:49.395Z,2.47
2018-11-12T04:46:18.228Z,3.33
2018-11-12T04:48:46.889Z,3.03
2018-11-12T04:51:15.529Z,2.20
2018-11-12T04:53:44.220Z,3.37
2018-11-12T04:56:12.800Z,2.53
2018-11-12T04:58:41.445Z,3.90
2018-11-12T05:01:10.106Z,2.67
2018-11-12T05:03:38.933Z,3.57
2018-11-12T05:06:07.612Z,3.10
2018-11-12T05:08:36.255Z,3.37
2018-11-12T05:11:05.230Z,2.60
2018-11-12T05:13:33.848Z,2.33
2018-11-12T05:16:02.507Z,2.50
2018-11-12T05:18:31.132Z,2.50
2018-11-12T05:20:59.812Z,2.40
2018-11-12T05:23:28.439Z,2.97
2018-11-12T05:25:57.092Z,2.53
2018-11-12T05:28:25.726Z,2.93
2018-11-12T05:30:54.369Z,2.00
2018-11-12T05:33:23.047Z,2.33
2018-11-12T05:35:51.671Z,2.70
2018-11-12T05:38:20.329Z,3.37
2018-11-12T05:40:48.975Z,3.10
2018-11-12T05:43:17.633Z,2.90
2018-11-12T05:45:46.289Z,3.27
2018-11-12T05:48:14.951Z,2.63
2018-11-12T05:50:43.608Z,2.37
2018-11-12T05:53:12.256Z,3.50
2018-11-12T05:55:40.923Z,3.17
2018-11-12T05:58:09.579Z,3.70
2018-11-12T06:00:38.231Z,2.67
2018-11-12T06:03:06.967Z,3.40
2018-11-12T06:05:35.844Z,2.60
2018-11-12T06:08:04.632Z,2.90
2018-11-12T06:10:34.113Z,3.43
2018-11-12T06:13:02.731Z,2.30
2018-11-12T06:15:31.402Z,3.23
2018-11-12T06:18:00.043Z,2.57
2018-11-12T06:20:29.803Z,2.77
2018-11-12T06:22:58.502Z,2.90
2018-11-12T06:25:31.416Z,3.70
2018-11-12T06:28:00.080Z,2.93
2018-11-12T06:30:30.364Z,2.63
2018-11-12T06:32:59.000Z,2.93
2018-11-12T06:35:27.668Z,3.00
2018-11-12T06:37:56.643Z,3.37
2018-11-12T06:40:26.243Z,3.07
2018-11-12T06:42:54.931Z,3.27
2018-11-12T06:45:24.860Z,3.60
2018-11-12T06:47:54.276Z,3.30
2018-11-12T06:50:25.023Z,3.50
2018-11-12T06:52:53.731Z,2.90
2018-11-12T06:55:22.733Z,3.80
2018-11-12T06:57:51.632Z,3.07
2018-11-12T07:00:22.405Z,3.13
2018-11-12T07:19:33.112Z,3.63
2018-11-12T07:22:01.748Z,3.43
2018-11-12T07:24:30.389Z,3.63
2018-11-12T07:26:59.058Z,3.77
2018-11-12T07:29:27.779Z,4.23
2018-11-12T07:31:56.444Z,3.50
2018-11-12T07:34:25.121Z,3.00
2018-11-12T07:36:53.763Z,3.97
2018-11-12T07:39:22.452Z,3.07
2018-11-12T07:41:51.149Z,3.73
2018-11-12T07:44:19.800Z,2.83
2018-11-12T07:46:48.498Z,3.53
2018-11-12T07:49:17.439Z,3.57
2018-11-12T07:51:46.112Z,3.20
2018-11-12T07:54:14.792Z,3.67
2018-11-12T07:56:43.434Z,3.00
2018-11-12T07:59:12.112Z,3.40
2018-11-12T08:01:40.757Z,3.30
2018-11-12T08:04:09.417Z,4.27
2018-11-12T08:06:38.081Z,3.70
2018-11-12T08:09:08.923Z,3.37
2018-11-12T08:11:37.504Z,3.23
2018-11-12T08:14:06.619Z,4.67
2018-11-12T08:16:35.349Z,3.03
2018-11-12T08:19:04.195Z,3.97
2018-11-12T08:21:32.926Z,2.83
2018-11-12T08:24:01.654Z,3.03
2018-11-12T08:26:30.328Z,2.87
2018-11-12T08:28:59.177Z,3.60
2018-11-12T08:31:27.897Z,3.70
2018-11-12T08:33:56.532Z,4.17
2018-11-12T08:36:25.235Z,3.23
2018-11-12T08:38:53.900Z,3.40
2018-11-12T08:41:22.556Z,3.53
2018-11-12T08:43:51.226Z,3.53
2018-11-12T09:03:01.555Z,3.77
2018-11-12T09:05:30.985Z,3.20
2018-11-12T09:08:01.007Z,3.63
2018-11-12T09:10:30.892Z,3.13
2018-11-12T09:12:59.567Z,3.07
2018-11-12T09:15:28.298Z,2.97
2018-11-12T09:17:57.007Z,2.80
2018-11-12T09:20:26.829Z,3.37
2018-11-12T09:22:55.786Z,2.80
2018-11-12T09:25:25.500Z,2.60
2018-11-12T09:27:54.194Z,2.90
2018-11-12T09:30:27.870Z,2.70
2018-11-12T09:32:56.566Z,4.67
2018-11-12T09:35:26.531Z,3.57
2018-11-12T09:37:56.196Z,3.33
2018-11-12T09:40:33.172Z,3.03
2018-11-12T09:43:01.955Z,3.30
2018-11-12T09:45:30.565Z,4.27
2018-11-12T09:47:59.305Z,3.93
2018-11-12T09:50:28.474Z,3.00
2018-11-12T09:52:58.091Z,2.93
2018-11-12T09:55:27.739Z,2.83
2018-11-12T09:57:57.913Z,2.93
2018-11-12T10:00:26.779Z,3.30
2018-11-12T10:02:56.208Z,2.87
2018-11-12T10:05:25.875Z,2.77
2018-11-12T10:07:55.909Z,2.60
2018-11-12T10:10:34.372Z,2.77
2018-11-12T10:13:03.602Z,1.87
2018-11-12T10:15:33.675Z,1.67
2018-11-12T10:18:02.362Z,3.20
2018-11-12T10:20:27.920Z,2.60
2018-11-12T10:22:56.584Z,2.30
2018-11-12T10:25:25.258Z,2.83
2018-11-12T10:27:53.921Z,2.53
2018-11-12T10:30:22.568Z,2.63
2018-11-12T10:32:51.265Z,2.20
2018-11-12T10:35:19.983Z,2.20
2018-11-12T10:37:48.687Z,2.10
2018-11-12T10:40:18.689Z,2.83
2018-11-12T10:42:47.450Z,2.20
2018-11-12T10:45:16.289Z,2.20
2018-11-12T10:47:45.725Z,2.27
2018-11-12T10:50:14.461Z,2.00
2018-11-12T10:52:43.152Z,1.93
2018-11-12T10:55:13.728Z,2.90
2018-11-12T10:57:42.993Z,2.13
2018-11-12T11:00:20.339Z,2.20
2018-11-12T11:02:54.249Z,2.77
2018-11-12T11:05:23.120Z,2.00
2018-11-12T11:07:52.739Z,2.20
2018-11-12T11:10:22.610Z,1.73
2018-11-12T11:12:51.324Z,3.13
2018-11-12T11:15:20.040Z,2.13
2018-11-12T11:17:49.011Z,2.00
2018-11-12T11:20:17.708Z,1.90
2018-11-12T11:22:46.383Z,2.10
2018-11-12T11:25:15.080Z,1.90
2018-11-12T11:27:43.739Z,1.93
2018-11-12T11:30:13.940Z,2.23
2018-11-12T11:32:42.712Z,2.23
2018-11-12T11:35:12.415Z,2.20
2018-11-12T11:37:41.112Z,2.20
2018-11-12T11:40:14.221Z,2.30
2018-11-12T11:42:43.008Z,2.37
2018-11-12T11:45:12.746Z,1.90
2018-11-12T11:47:41.937Z,1.93
2018-11-12T11:50:12.222Z,2.20
2018-11-12T11:52:40.824Z,2.10
2018-11-12T11:55:12.573Z,2.10
2018-11-12T11:57:41.686Z,1.73
2018-11-12T12:00:13.230Z,2.30
2018-11-12T12:02:42.389Z,2.10
2018-11-12T12:05:12.316Z,1.53
2018-11-12T12:07:41.063Z,2.00
2018-11-12T12:10:10.521Z,1.40
2018-11-12T12:12:39.191Z,1.10
2018-11-12T12:15:09.505Z,1.17
2018-11-12T12:17:38.310Z,1.47
2018-11-12T12:20:13.496Z,2.00
2018-11-12T12:22:42.149Z,1.50
2018-11-12T12:25:12.498Z,1.70
2018-11-12T12:27:41.461Z,1.40
2018-11-12T12:30:13.460Z,1.53
2018-11-12T12:32:42.820Z,2.13
2018-11-12T12:35:12.233Z,1.43
2018-11-12T12:37:41.374Z,1.63
2018-11-12T12:40:11.747Z,1.70
2018-11-12T12:42:40.448Z,1.83
2018-11-12T12:45:10.402Z,1.47
2018-11-12T12:47:39.132Z,2.00
2018-11-12T12:50:09.371Z,1.97
2018-11-12T12:52:38.166Z,2.00
2018-11-12T12:55:07.496Z,1.70
2018-11-12T12:57:36.205Z,1.77
2018-11-12T13:00:06.618Z,1.37
2018-11-12T13:02:35.312Z,1.97
2018-11-12T13:05:04.264Z,2.60
2018-11-12T13:07:33.254Z,2.13
2018-11-12T13:10:01.853Z,2.73
2018-11-12T13:12:30.516Z,3.27
2018-11-12T13:14:59.379Z,3.10
2018-11-12T13:17:27.900Z,2.40
2018-11-12T13:19:56.565Z,2.40
2018-11-12T13:22:25.784Z,2.10
2018-11-12T13:24:54.432Z,2.63
2018-11-12T13:27:23.080Z,2.63
2018-11-12T13:29:51.853Z,3.33
2018-11-12T13:32:20.464Z,2.50
2018-11-12T13:34:49.182Z,1.90
2018-11-12T13:39:46.359Z,2.77
2018-11-12T13:42:15.052Z,2.97
2018-11-12T13:44:43.709Z,3.20
2018-11-12T13:47:12.368Z,2.40
2018-11-12T13:49:40.997Z,2.67
2018-11-12T13:52:09.640Z,2.50
2018-11-12T13:54:38.329Z,3.17
2018-11-12T13:57:07.016Z,2.93
2018-11-12T13:59:35.679Z,3.17
2018-11-12T14:02:04.370Z,2.07
2018-11-12T14:04:33.042Z,1.97
2018-11-12T14:07:01.716Z,2.53
2018-11-12T14:09:30.351Z,2.30
2018-11-12T14:11:59.047Z,1.77
2018-11-12T14:14:27.749Z,1.83
2018-11-12T14:16:56.406Z,1.67
2018-11-12T14:19:25.080Z,2.13
2018-11-12T14:21:53.788Z,1.97
2018-11-12T14:24:22.438Z,2.27
2018-11-12T14:26:51.092Z,1.83
2018-11-12T14:29:19.783Z,1.50
2018-11-12T14:31:48.476Z,1.67
2018-11-12T14:34:17.125Z,1.83
2018-11-12T14:36:45.792Z,2.33
2018-11-12T14:39:14.428Z,1.50
2018-11-12T14:41:43.109Z,1.67
2018-11-12T14:44:11.771Z,2.20
2018-11-12T14:46:40.453Z,1.97
2018-11-12T14:49:09.120Z,1.90
2018-11-12T14:51:37.812Z,2.20
2018-11-12T14:54:06.527Z,1.63
2018-11-12T14:56:35.232Z,2.20
2018-11-12T14:59:03.916Z,1.90
2018-11-12T15:01:32.584Z,2.20
2018-11-12T15:04:01.280Z,1.97
2018-11-12T15:06:29.947Z,1.27
2018-11-12T15:08:58.642Z,1.57
2018-11-12T15:11:27.333Z,2.30
2018-11-12T15:13:55.996Z,1.87
2018-11-12T15:16:24.655Z,1.80
2018-11-12T15:18:53.321Z,1.97
2018-11-12T15:21:21.965Z,1.70
2018-11-12T15:23:50.688Z,1.97
2018-11-12T15:26:19.367Z,2.47
2018-11-12T15:28:48.059Z,2.00
2018-11-12T15:31:16.735Z,2.20
2018-11-12T15:33:45.384Z,2.67
2018-11-12T15:36:14.090Z,2.57
2018-11-12T15:38:42.783Z,4.00
2018-11-12T15:41:11.490Z,2.40
2018-11-12T15:43:40.152Z,2.80
2018-11-12T15:46:08.836Z,2.50
2018-11-12T15:48:37.579Z,2.40
2018-11-12T15:51:06.652Z,2.20
2018-11-12T15:53:35.243Z,2.43
2018-11-12T15:56:03.965Z,2.57
2018-11-12T15:58:32.668Z,2.43
2018-11-12T16:01:01.380Z,2.53
2018-11-12T16:03:30.109Z,1.93
2018-11-12T16:05:58.913Z,1.93
2018-11-12T16:08:27.486Z,2.23
2018-11-12T16:10:56.224Z,2.43
2018-11-12T16:13:24.917Z,2.20
2018-11-12T16:15:53.611Z,2.63
2018-11-12T16:18:22.282Z,2.20
2018-11-12T16:20:50.992Z,1.80
2018-11-12T16:23:19.689Z,1.97
2018-11-12T16:25:48.417Z,2.10
2018-11-12T16:28:17.128Z,2.20
2018-11-12T16:30:45.788Z,2.23
2018-11-12T16:33:14.456Z,1.83
2018-11-12T16:35:43.115Z,2.43
2018-11-12T16:38:11.796Z,2.43
2018-11-12T16:40:40.447Z,1.83
2018-11-12T16:43:09.112Z,1.77
2018-11-12T16:45:37.771Z,2.00
2018-11-12T16:48:06.412Z,2.07
2018-11-12T16:50:35.044Z,1.73
2018-11-12T16:53:05.812Z,1.57
2018-11-12T16:55:34.459Z,1.80
2018-11-12T16:58:03.241Z,1.87
2018-11-12T17:00:31.916Z,1.40
2018-11-12T17:03:00.552Z,2.27
2018-11-12T17:05:29.215Z,2.10
2018-11-12T17:07:57.891Z,2.00
2018-11-12T17:10:27.273Z,1.63
2018-11-12T17:12:55.962Z,1.90
2018-11-12T17:15:24.616Z,2.37
2018-11-12T17:17:53.287Z,2.20
2018-11-12T17:20:22.514Z,2.53
2018-11-12T17:22:51.178Z,2.73
2018-11-12T17:25:20.090Z,2.27
2018-11-12T17:27:51.745Z,2.67
2018-11-12T17:30:21.416Z,3.07
2018-11-12T17:32:50.652Z,3.03
2018-11-12T17:35:20.476Z,2.30
2018-11-12T17:37:49.192Z,2.50
2018-11-12T17:40:22.153Z,3.33
2018-11-12T17:42:51.557Z,3.30
2018-11-12T17:45:22.312Z,3.07
2018-11-12T17:47:51.937Z,2.67
2018-11-12T17:50:20.580Z,3.10
2018-11-12T17:52:49.245Z,2.67
2018-11-12T17:55:17.883Z,3.23
2018-11-12T17:57:46.549Z,2.93
2018-11-12T18:00:19.652Z,3.30
2018-11-12T18:02:48.709Z,2.90
2018-11-12T18:05:17.427Z,2.37
2018-11-12T18:07:46.288Z,2.27
2018-11-12T18:10:15.545Z,2.67
2018-11-12T18:12:44.268Z,1.90
2018-11-12T18:15:14.197Z,2.40
2018-11-12T18:17:43.103Z,2.43
2018-11-12T18:20:14.538Z,2.70
2018-11-12T18:22:43.491Z,3.00
2018-11-12T18:25:12.600Z,2.67
2018-11-12T18:27:41.282Z,2.80
2018-11-12T18:30:15.399Z,2.37
2018-11-12T18:32:44.835Z,2.60
2018-11-12T18:35:13.725Z,2.07
2018-11-12T18:37:42.408Z,1.87
2018-11-12T18:40:12.918Z,1.80
2018-11-12T18:42:41.689Z,2.00
2018-11-12T18:45:32.975Z,1.10
2018-11-12T18:48:02.803Z,1.90
2018-11-12T18:50:31.914Z,1.83
2018-11-12T18:53:00.601Z,1.67
2018-11-12T18:55:29.312Z,1.60
2018-11-12T18:57:58.315Z,1.63
2018-11-12T19:00:27.467Z,2.13
2018-11-12T19:02:56.324Z,1.90
2018-11-12T19:05:27.225Z,2.03
2018-11-12T19:07:57.160Z,2.00
2018-11-12T19:10:28.257Z,2.00
2018-11-12T19:12:56.904Z,1.70
2018-11-12T19:15:26.870Z,2.07
2018-11-12T19:17:59.053Z,1.93
2018-11-12T19:20:27.727Z,1.77
2018-11-12T19:22:56.453Z,1.70
2018-11-12T19:25:25.225Z,1.80
2018-11-12T19:27:53.916Z,1.83
2018-11-12T19:30:23.928Z,1.57
2018-11-12T19:32:52.621Z,1.60
2018-11-12T19:35:22.623Z,1.40
2018-11-12T19:37:51.274Z,1.23
2018-11-12T19:40:21.155Z,1.50
2018-11-12T19:42:50.881Z,1.50
2018-11-12T19:45:19.552Z,2.60
2018-11-12T19:47:49.450Z,2.40
2018-11-12T19:50:19.259Z,1.70
2018-11-12T19:52:49.137Z,1.70
2018-11-12T19:55:17.937Z,1.60
2018-11-12T19:57:47.242Z,1.80
2018-11-12T20:00:17.735Z,1.70
2018-11-12T20:02:47.744Z,1.53
2018-11-12T20:05:16.457Z,1.53
2018-11-12T20:07:45.405Z,1.70
2018-11-12T20:10:15.754Z,1.93
2018-11-12T20:12:44.576Z,2.10
2018-11-12T20:15:14.436Z,2.87
2018-11-12T20:17:44.795Z,2.00
2018-11-12T20:20:16.607Z,1.90
2018-11-12T20:22:45.868Z,2.33
2018-11-12T20:25:15.540Z,3.40
2018-11-12T20:27:44.548Z,2.83
2018-11-12T20:30:22.676Z,2.07
2018-11-12T20:32:51.416Z,2.07
2018-11-12T20:35:20.097Z,1.87
2018-11-12T20:37:48.767Z,2.03
2018-11-12T20:40:17.721Z,2.07
2018-11-12T20:42:47.235Z,2.00
2018-11-12T20:45:16.843Z,2.20
2018-11-12T20:47:46.909Z,1.90
2018-11-12T20:50:16.287Z,2.00
2018-11-12T20:52:45.113Z,1.73
2018-11-12T20:55:14.731Z,1.90
2018-11-12T20:57:43.681Z,2.03
2018-11-12T21:00:18.452Z,3.30
2018-11-12T21:02:48.530Z,3.00
2018-11-12T21:05:17.467Z,3.90
2018-11-12T21:07:46.153Z,3.37
2018-11-12T21:10:16.192Z,3.20
2018-11-12T21:12:45.147Z,2.37
2018-11-12T21:15:14.772Z,2.27
2018-11-12T21:17:43.759Z,3.63
2018-11-12T21:20:15.181Z,3.10
2018-11-12T21:22:43.942Z,2.87
2018-11-12T21:25:13.936Z,3.73
2018-11-12T21:27:42.897Z,4.20
2018-11-12T21:30:14.304Z,2.70
2018-11-12T21:32:43.220Z,2.43
2018-11-12T21:35:11.974Z,3.57
2018-11-12T21:37:40.725Z,7.47
2018-11-12T21:40:14.125Z,3.00
2018-11-12T21:42:42.786Z,2.67
2018-11-12T21:45:12.999Z,3.50
2018-11-12T21:47:42.324Z,4.03
2018-11-12T21:50:13.035Z,3.80
2018-11-12T21:52:41.709Z,3.73
2018-11-12T21:55:11.147Z,4.00
2018-11-12T21:57:40.339Z,4.30
2018-11-12T22:00:15.328Z,2.87
2018-11-12T22:02:44.520Z,3.20
2018-11-12T22:05:13.265Z,2.97
2018-11-12T22:07:41.918Z,3.60
2018-11-12T22:10:12.432Z,3.30
2018-11-12T22:12:41.912Z,2.73
2018-11-12T22:15:10.819Z,2.87
2018-11-12T22:17:39.486Z,4.63
2018-11-12T22:20:09.600Z,3.03
2018-11-12T22:22:38.765Z,4.53
2018-11-12T22:25:08.785Z,4.80
2018-11-12T22:27:37.760Z,5.37
2018-11-12T22:30:07.248Z,5.20
2018-11-12T22:32:35.912Z,3.20
2018-11-12T22:35:04.679Z,3.00
2018-11-12T22:37:33.510Z,3.23
2018-11-12T22:40:02.137Z,3.53
2018-11-12T22:42:30.837Z,3.23
2018-11-12T22:44:59.577Z,2.33
2018-11-12T22:47:28.283Z,2.83
2018-11-12T22:49:56.947Z,3.50
2018-11-12T22:52:25.665Z,3.43
2018-11-12T22:54:54.308Z,3.20
2018-11-12T22:57:22.968Z,4.10
2018-11-12T22:59:51.680Z,3.57
2018-11-12T23:02:20.284Z,3.00
2018-11-12T23:04:48.932Z,3.27
2018-11-12T23:07:17.608Z,3.13
2018-11-12T23:09:46.327Z,4.57
2018-11-12T23:12:15.015Z,5.53
2018-11-12T23:14:43.646Z,4.43
2018-11-12T23:17:12.364Z,3.00
2018-11-12T23:19:41.109Z,2.40
2018-11-12T23:22:09.726Z,3.00
2018-11-12T23:24:38.408Z,2.60
2018-11-12T23:27:07.120Z,3.00
2018-11-12T23:29:35.777Z,3.10
2018-11-12T23:32:04.561Z,2.90
2018-11-12T23:34:33.253Z,3.50
2018-11-12T23:37:01.912Z,3.23
2018-11-12T23:39:30.581Z,3.30
2018-11-12T23:41:59.315Z,2.93
2018-11-12T23:44:27.977Z,3.20
2018-11-12T23:46:57.037Z,3.50
2018-11-12T23:49:25.340Z,2.80
2018-11-12T23:51:54.004Z,3.27
2018-11-12T23:54:22.664Z,3.57
2018-11-12T23:56:51.325Z,3.87
2018-11-12T23:59:20.028Z,3.60
